createdAt,value
2018-08-23T00:01:37.301Z,6.00
2018-08-23T00:06:46.823Z,5.93
2018-08-23T00:11:49.353Z,6.17
2018-08-23T00:16:52.566Z,6.13
2018-08-23T00:21:55.071Z,7.97
2018-08-23T00:26:58.859Z,6.20
2018-08-23T00:32:03.529Z,6.73
2018-08-23T00:37:06.755Z,6.43
2018-08-23T00:42:10.823Z,7.37
2018-08-23T00:47:13.379Z,6.57
2018-08-23T00:52:17.395Z,6.13
2018-08-23T00:57:19.915Z,6.43
2018-08-23T01:02:22.447Z,7.17
2018-08-23T01:07:27.718Z,7.63
2018-08-23T01:12:30.704Z,6.63
2018-08-23T01:17:33.255Z,7.33
2018-08-23T01:22:36.228Z,8.37
2018-08-23T01:27:38.736Z,7.07
2018-08-23T01:32:41.280Z,7.70
2018-08-23T01:37:43.819Z,9.53
2018-08-23T01:42:46.359Z,9.00
2018-08-23T01:47:53.551Z,8.17
2018-08-23T01:52:57.062Z,9.87
2018-08-23T01:57:59.622Z,7.47
2018-08-23T02:03:02.775Z,9.27
2018-08-23T02:08:05.407Z,7.77
2018-08-23T02:13:15.466Z,7.40
2018-08-23T02:18:18.057Z,7.57
2018-08-23T02:23:20.574Z,8.63
2018-08-23T02:28:23.121Z,7.10
2018-08-23T02:33:26.413Z,7.67
2018-08-23T02:38:29.378Z,8.30
2018-08-23T02:43:31.896Z,9.87
2018-08-23T02:48:34.391Z,7.73
2018-08-23T02:53:43.610Z,13.10
2018-08-23T02:58:59.719Z,10.57
2018-08-23T03:04:09.522Z,12.13
2018-08-23T03:09:12.058Z,9.27
2018-08-23T03:14:15.601Z,8.93
2018-08-23T03:19:18.738Z,9.67
2018-08-23T03:24:21.259Z,8.43
2018-08-23T03:29:23.819Z,9.53
2018-08-23T03:34:26.378Z,9.63
2018-08-23T03:39:28.897Z,9.83
2018-08-23T03:44:37.778Z,14.23
2018-08-23T03:49:43.330Z,12.50
2018-08-23T03:55:01.511Z,12.73
2018-08-23T04:00:04.154Z,14.57
2018-08-23T04:05:13.539Z,10.90
2018-08-23T04:10:16.094Z,10.53
2018-08-23T04:15:23.286Z,10.33
2018-08-23T04:20:25.800Z,15.90
2018-08-23T04:25:28.354Z,12.10
2018-08-23T04:30:30.904Z,11.67
2018-08-23T04:35:33.714Z,14.87
2018-08-23T04:40:36.251Z,15.23
2018-08-23T04:45:38.792Z,12.37
2018-08-23T04:50:41.327Z,10.57
2018-08-23T04:55:43.868Z,14.53
2018-08-23T05:00:46.403Z,9.57
2018-08-23T05:05:48.924Z,12.27
2018-08-23T05:10:51.446Z,16.17
2018-08-23T05:15:53.958Z,9.07
2018-08-23T05:20:56.486Z,12.03
2018-08-23T05:26:03.189Z,11.63
2018-08-23T05:31:05.742Z,12.13
2018-08-23T05:36:12.844Z,20.63
2018-08-23T05:41:15.566Z,24.27
2018-08-23T05:46:18.094Z,17.33
2018-08-23T05:51:20.634Z,16.10
2018-08-23T05:56:23.143Z,17.20
2018-08-23T06:01:25.692Z,14.87
2018-08-23T06:06:29.164Z,17.70
2018-08-23T06:11:31.749Z,14.40
2018-08-23T06:16:43.880Z,18.00
2018-08-23T06:21:46.395Z,25.27
2018-08-23T06:26:50.864Z,22.00
2018-08-23T06:31:59.353Z,14.97
2018-08-23T06:37:01.897Z,11.77
2018-08-23T06:42:04.503Z,15.37
2018-08-23T06:47:07.111Z,14.70
2018-08-23T06:52:13.125Z,23.40
2018-08-23T06:57:15.674Z,15.27
2018-08-23T07:02:18.281Z,16.57
2018-08-23T07:07:20.798Z,19.03
2018-08-23T07:12:23.314Z,15.00
2018-08-23T07:17:26.476Z,11.10
2018-08-23T07:22:28.976Z,16.43
2018-08-23T07:27:31.475Z,12.00
2018-08-23T07:32:38.626Z,11.13
2018-08-23T07:37:43.508Z,12.63
2018-08-23T07:42:47.367Z,13.50
2018-08-23T07:47:52.167Z,11.93
2018-08-23T07:52:54.906Z,18.33
2018-08-23T07:57:57.410Z,14.60
2018-08-23T08:02:59.939Z,9.53
2018-08-23T08:08:02.701Z,8.83
2018-08-23T08:13:05.331Z,9.03
2018-08-23T08:18:25.483Z,9.13
2018-08-23T08:23:28.084Z,9.83
2018-08-23T08:28:30.643Z,12.20
2018-08-23T08:33:34.728Z,7.70
2018-08-23T08:38:37.244Z,7.07
2018-08-23T08:43:42.320Z,9.27
2018-08-23T08:48:46.204Z,10.40
2018-08-23T08:53:48.824Z,7.30
2018-08-23T08:58:54.016Z,10.47
2018-08-23T09:03:56.565Z,11.67
2018-08-23T09:09:03.782Z,11.33
2018-08-23T09:14:06.302Z,8.93
2018-08-23T09:19:08.832Z,10.00
2018-08-23T09:24:24.551Z,7.33
2018-08-23T09:29:36.290Z,11.13
2018-08-23T09:34:39.860Z,7.50
2018-08-23T09:39:42.926Z,10.77
2018-08-23T09:44:58.320Z,7.10
2018-08-23T09:50:00.869Z,7.43
2018-08-23T09:55:03.454Z,6.77
2018-08-23T10:00:10.377Z,9.67
2018-08-23T10:05:18.596Z,9.00
2018-08-23T10:10:26.720Z,9.07
2018-08-23T10:15:34.961Z,7.40
2018-08-23T10:20:47.232Z,6.47
2018-08-23T10:25:51.817Z,8.13
2018-08-23T10:30:55.097Z,8.30
2018-08-23T10:35:57.628Z,6.93
2018-08-23T10:41:03.092Z,8.17
2018-08-23T10:46:06.119Z,9.27
2018-08-23T10:51:08.718Z,7.20
2018-08-23T10:56:11.246Z,7.70
2018-08-23T11:01:13.823Z,13.03
2018-08-23T11:06:16.384Z,7.03
2018-08-23T11:11:24.476Z,8.33
2018-08-23T11:16:32.752Z,8.23
2018-08-23T11:21:35.379Z,8.90
2018-08-23T11:26:37.923Z,7.17
2018-08-23T11:31:40.501Z,6.45
2018-08-23T11:36:43.125Z,6.30
2018-08-23T11:41:45.652Z,5.37
2018-08-23T11:46:48.233Z,6.00
2018-08-23T11:51:50.895Z,8.38
2018-08-23T11:56:53.447Z,7.62
2018-08-23T12:01:56.782Z,6.78
2018-08-23T12:06:59.300Z,6.67
2018-08-23T12:12:03.275Z,5.35
2018-08-23T12:17:05.861Z,5.00
2018-08-23T12:22:08.519Z,5.58
2018-08-23T12:27:11.237Z,5.50
2018-08-23T12:32:13.780Z,5.50
2018-08-23T12:38:21.740Z,6.42
2018-08-23T12:43:29.968Z,7.50
2018-08-23T12:48:32.544Z,6.50
2018-08-23T12:53:35.121Z,8.38
2018-08-23T12:58:37.735Z,6.30
2018-08-23T13:03:40.345Z,5.80
2018-08-23T13:08:42.888Z,6.47
2018-08-23T13:13:45.424Z,5.80
2018-08-23T13:18:47.967Z,6.50
2018-08-23T13:23:51.477Z,6.47
2018-08-23T13:28:54.040Z,6.03
2018-08-23T13:33:56.655Z,8.67
2018-08-23T13:38:59.269Z,10.35
2018-08-23T13:44:01.905Z,9.73
2018-08-23T13:49:04.400Z,10.23
2018-08-23T13:54:06.965Z,9.77
2018-08-23T13:59:09.536Z,8.00
2018-08-23T14:04:12.192Z,8.23
2018-08-23T14:09:14.735Z,10.40
2018-08-23T14:14:17.360Z,8.30
2018-08-23T14:19:19.911Z,7.30
2018-08-23T14:24:22.459Z,7.97
2018-08-23T14:29:24.991Z,5.70
2018-08-23T14:34:27.507Z,7.73
2018-08-23T14:39:30.033Z,6.30
2018-08-23T14:44:32.535Z,6.53
2018-08-23T14:49:35.604Z,7.33
2018-08-23T14:54:40.462Z,9.97
2018-08-23T14:59:43.603Z,7.97
2018-08-23T15:04:49.365Z,10.30
2018-08-23T15:09:51.948Z,14.13
2018-08-23T15:14:54.492Z,11.03
2018-08-23T15:19:57.095Z,10.20
2018-08-23T15:24:59.671Z,12.40
2018-08-23T15:30:03.641Z,11.97
2018-08-23T15:35:06.299Z,10.33
2018-08-23T15:40:08.972Z,9.93
2018-08-23T15:45:11.787Z,9.67
2018-08-23T15:50:14.384Z,10.13
2018-08-23T15:55:17.243Z,12.30
2018-08-23T16:00:19.704Z,11.47
2018-08-23T16:05:22.307Z,9.53
2018-08-23T16:10:24.933Z,11.23
2018-08-23T16:15:27.995Z,12.17
2018-08-23T16:20:36.271Z,9.03
2018-08-23T16:25:42.803Z,8.57
2018-08-23T16:30:45.368Z,11.80
2018-08-23T16:35:47.947Z,12.53
2018-08-23T16:40:50.484Z,12.13
2018-08-23T16:45:53.048Z,7.83
2018-08-23T16:50:55.628Z,8.77
2018-08-23T16:55:58.200Z,8.37
2018-08-23T17:01:00.750Z,9.90
2018-08-23T17:06:03.323Z,11.67
2018-08-23T17:11:05.895Z,8.87
2018-08-23T17:16:14.063Z,8.83
2018-08-23T17:21:16.626Z,6.93
2018-08-23T17:26:19.176Z,6.17
2018-08-23T17:31:21.776Z,5.70
2018-08-23T17:36:24.388Z,7.73
2018-08-23T17:41:26.985Z,5.83
2018-08-23T17:46:29.538Z,8.43
2018-08-23T17:51:32.119Z,5.90
2018-08-23T17:56:34.734Z,6.93
2018-08-23T18:01:37.333Z,7.80
2018-08-23T18:06:40.019Z,6.63
2018-08-23T18:11:42.543Z,7.57
2018-08-23T18:16:50.600Z,7.93
2018-08-23T18:21:53.272Z,9.30
2018-08-23T18:26:56.008Z,9.30
2018-08-23T18:31:58.585Z,10.20
2018-08-23T18:37:01.160Z,8.37
2018-08-23T18:42:04.082Z,8.53
2018-08-23T18:47:06.712Z,11.00
2018-08-23T18:52:09.315Z,8.90
2018-08-23T18:57:11.866Z,8.43
2018-08-23T19:02:14.455Z,8.97
2018-08-23T19:07:22.712Z,8.33
2018-08-23T19:12:25.258Z,7.60
2018-08-23T19:17:35.380Z,7.90
2018-08-23T19:22:37.957Z,7.60
2018-08-23T19:27:40.520Z,7.23
2018-08-23T19:32:43.150Z,7.20
2018-08-23T19:37:45.751Z,7.50
2018-08-23T19:42:48.384Z,6.07
2018-08-23T19:47:53.073Z,6.10
2018-08-23T19:52:55.679Z,6.00
2018-08-23T19:57:58.310Z,6.03
2018-08-23T20:03:02.006Z,5.60
2018-08-23T20:08:04.604Z,5.70
2018-08-23T20:13:07.409Z,3.47
2018-08-23T20:18:10.010Z,3.90
2018-08-23T20:23:12.575Z,5.37
2018-08-23T20:28:15.166Z,3.80
2018-08-23T20:33:17.907Z,3.50
2018-08-23T20:38:20.470Z,4.70
2018-08-23T20:43:23.021Z,6.80
2018-08-23T20:48:25.565Z,6.90
2018-08-23T20:53:28.139Z,6.67
2018-08-23T20:58:30.679Z,3.90
2018-08-23T21:03:33.226Z,3.47
2018-08-23T21:08:35.745Z,3.40
2018-08-23T21:13:38.348Z,4.13
2018-08-23T21:18:42.583Z,3.83
2018-08-23T21:23:45.115Z,4.73
2018-08-23T21:28:47.785Z,4.10
2018-08-23T21:33:50.427Z,3.97
2018-08-23T21:38:52.958Z,4.87
2018-08-23T21:43:58.831Z,4.47
2018-08-23T21:49:01.397Z,4.37
2018-08-23T21:54:04.010Z,5.17
2018-08-23T21:59:06.607Z,6.07
2018-08-23T22:04:09.170Z,5.40
2018-08-23T22:09:11.730Z,4.20
2018-08-23T22:14:14.353Z,4.63
2018-08-23T22:19:16.884Z,4.60
2018-08-23T22:24:19.454Z,6.17
2018-08-23T22:29:21.992Z,8.20
2018-08-23T22:34:24.523Z,6.80
2018-08-23T22:39:27.505Z,8.70
2018-08-23T22:44:32.421Z,6.70
2018-08-23T22:49:34.999Z,6.67
2018-08-23T22:54:37.486Z,6.60
2018-08-23T22:59:40.089Z,6.17
2018-08-23T23:04:42.851Z,5.97
2018-08-23T23:09:45.418Z,4.93
2018-08-23T23:14:48.047Z,6.37
2018-08-23T23:19:50.611Z,5.70
2018-08-23T23:24:58.849Z,7.27
2018-08-23T23:30:03.074Z,5.43
2018-08-23T23:35:05.615Z,5.87
2018-08-23T23:40:08.951Z,6.77
2018-08-23T23:45:11.495Z,6.00
2018-08-23T23:50:15.310Z,5.97
2018-08-23T23:55:17.885Z,5.50
